METAR Formatted Surface Weather Observation
Issued by NWS

Home | Current Version | Previous Version | Text Only | Print | Product List | Glossary On
Versions: 1 2 3 4 5 6
958
SAUS42 KTAE 232352
MTR1J0
METAR K1J0 232258Z AUTO 21007KT 10SM CLR 31/22 A2996 RMK AO2 SLP102
T03060222 $



USA.gov is the U.S. government's official web portal to all federal, state and local government web resources and services.